createdAt,value
2019-02-22T00:00:25.543Z,27.35
2019-02-22T00:02:55.694Z,25.37
2019-02-22T00:05:25.795Z,25.20
2019-02-22T00:07:55.871Z,27.40
2019-02-22T00:10:25.967Z,25.65
2019-02-22T00:12:57.006Z,25.10
2019-02-22T00:15:27.155Z,26.75
2019-02-22T00:17:58.169Z,27.62
2019-02-22T00:20:28.285Z,25.45
2019-02-22T00:22:59.352Z,24.77
2019-02-22T00:25:29.411Z,24.12
2019-02-22T00:27:59.491Z,26.37
2019-02-22T00:30:30.831Z,26.33
2019-02-22T00:33:00.923Z,26.77
2019-02-22T00:35:43.515Z,26.12
2019-02-22T00:38:19.644Z,26.20
2019-02-22T00:40:50.753Z,28.12
2019-02-22T00:43:20.852Z,28.52
2019-02-22T00:45:51.829Z,28.02
2019-02-22T00:48:21.915Z,28.00
2019-02-22T00:50:52.907Z,27.65
2019-02-22T00:53:22.995Z,27.25
2019-02-22T00:55:53.076Z,28.47
2019-02-22T00:58:29.043Z,27.55
2019-02-22T01:01:04.191Z,28.62
2019-02-22T01:03:34.309Z,27.07
2019-02-22T01:06:04.388Z,26.55
2019-02-22T01:08:35.367Z,26.50
2019-02-22T01:11:05.754Z,29.42
2019-02-22T01:13:35.819Z,29.98
2019-02-22T01:16:13.819Z,27.58
2019-02-22T01:18:43.913Z,28.55
2019-02-22T01:21:14.971Z,26.80
2019-02-22T01:23:45.069Z,28.02
2019-02-22T01:26:15.169Z,27.40
2019-02-22T01:28:45.272Z,25.30
2019-02-22T01:31:16.244Z,25.55
2019-02-22T01:33:46.331Z,27.65
2019-02-22T01:36:23.246Z,28.52
2019-02-22T01:38:53.324Z,27.05
2019-02-22T01:41:23.443Z,28.23
2019-02-22T01:43:53.531Z,26.68
2019-02-22T01:46:23.859Z,26.90
2019-02-22T01:48:54.884Z,28.20
2019-02-22T01:51:31.742Z,28.42
2019-02-22T01:54:01.856Z,29.72
2019-02-22T01:56:32.895Z,28.35
2019-02-22T01:59:08.775Z,29.63
2019-02-22T02:01:39.049Z,27.80
2019-02-22T02:04:14.864Z,29.52
2019-02-22T02:06:46.972Z,28.87
2019-02-22T02:09:17.152Z,28.80
2019-02-22T02:11:48.265Z,31.42
2019-02-22T02:14:18.339Z,30.50
2019-02-22T02:16:51.014Z,30.92
2019-02-22T02:19:23.115Z,30.12
2019-02-22T02:21:54.115Z,31.70
2019-02-22T02:24:25.096Z,33.08
2019-02-22T02:26:55.183Z,32.05
2019-02-22T02:29:43.795Z,32.48
2019-02-22T02:32:13.887Z,34.27
2019-02-22T02:34:43.959Z,33.85
2019-02-22T02:37:14.069Z,32.95
2019-02-22T02:39:44.129Z,35.90
2019-02-22T02:42:15.180Z,35.73
2019-02-22T02:44:47.219Z,36.80
2019-02-22T02:47:17.327Z,36.45
2019-02-22T02:49:53.207Z,34.45
2019-02-22T02:52:25.207Z,37.73
2019-02-22T02:54:55.367Z,37.53
2019-02-22T02:57:26.344Z,38.70
2019-02-22T02:59:56.418Z,39.60
2019-02-22T03:02:31.240Z,37.08
2019-02-22T03:05:01.328Z,40.65
2019-02-22T03:07:44.619Z,40.08
2019-02-22T03:10:14.703Z,41.40
2019-02-22T03:12:50.527Z,40.90
2019-02-22T03:15:20.614Z,40.80
2019-02-22T03:17:51.596Z,40.15
2019-02-22T03:20:21.667Z,42.08
2019-02-22T03:22:51.754Z,41.28
2019-02-22T03:25:24.881Z,40.63
2019-02-22T03:27:55.029Z,43.92
2019-02-22T03:30:26.052Z,45.45
2019-02-22T03:32:58.139Z,43.17
2019-02-22T03:35:30.195Z,44.42
2019-02-22T03:38:01.196Z,43.10
2019-02-22T03:40:33.655Z,45.78
2019-02-22T03:43:04.103Z,43.75
2019-02-22T03:45:34.263Z,44.67
2019-02-22T03:48:04.372Z,43.35
2019-02-22T03:50:34.464Z,46.45
2019-02-22T03:53:08.854Z,43.85
2019-02-22T03:55:47.396Z,47.38
2019-02-22T03:58:17.548Z,48.38
2019-02-22T04:00:47.684Z,48.92
2019-02-22T04:03:18.727Z,46.02
2019-02-22T04:05:50.708Z,46.13
2019-02-22T04:08:24.116Z,45.80
2019-02-22T04:10:54.208Z,48.50
2019-02-22T04:13:27.341Z,49.00
2019-02-22T04:15:58.322Z,52.27
2019-02-22T04:18:29.360Z,50.40
2019-02-22T04:20:59.528Z,48.13
2019-02-22T04:23:29.616Z,48.55
2019-02-22T04:26:00.730Z,50.03
2019-02-22T04:28:31.750Z,47.05
2019-02-22T04:31:02.769Z,50.12
2019-02-22T04:33:33.845Z,51.90
2019-02-22T04:36:03.960Z,50.92
2019-02-22T04:38:34.032Z,51.35
2019-02-22T04:41:05.108Z,52.20
2019-02-22T04:43:35.183Z,50.65
2019-02-22T04:46:05.271Z,52.53
2019-02-22T04:48:36.248Z,48.83
2019-02-22T04:51:07.309Z,51.88
2019-02-22T04:53:38.353Z,54.67
2019-02-22T04:56:08.437Z,50.55
2019-02-22T04:58:38.525Z,51.58
2019-02-22T05:01:08.611Z,51.85
2019-02-22T05:03:39.806Z,49.63
2019-02-22T05:06:11.834Z,52.53
2019-02-22T05:08:42.851Z,53.83
2019-02-22T05:11:19.047Z,51.83
2019-02-22T05:13:50.091Z,51.40
2019-02-22T05:16:24.603Z,51.18
2019-02-22T05:18:54.644Z,52.08
2019-02-22T05:21:32.617Z,49.05
2019-02-22T05:24:05.707Z,51.08
2019-02-22T05:26:35.807Z,52.30
2019-02-22T05:29:16.506Z,50.38
2019-02-22T05:31:47.505Z,50.50
2019-02-22T05:34:20.603Z,51.25
2019-02-22T05:36:50.685Z,50.33
2019-02-22T05:39:27.740Z,49.13
2019-02-22T05:41:57.819Z,48.92
2019-02-22T05:44:28.042Z,50.12
2019-02-22T05:47:00.593Z,49.90
2019-02-22T05:49:31.889Z,49.55
2019-02-22T05:52:02.907Z,47.17
2019-02-22T05:54:34.972Z,47.27
2019-02-22T05:57:09.684Z,46.25
2019-02-22T05:59:43.772Z,44.75
2019-02-22T06:02:23.423Z,46.08
2019-02-22T06:04:54.489Z,44.73
2019-02-22T06:07:26.237Z,46.02
2019-02-22T06:10:08.017Z,47.35
2019-02-22T06:12:44.996Z,46.53
2019-02-22T06:15:21.167Z,43.85
2019-02-22T06:20:17.336Z,44.80
2019-02-22T06:22:49.405Z,42.17
2019-02-22T06:25:21.452Z,41.83
2019-02-22T06:28:08.568Z,39.85
2019-02-22T06:30:38.649Z,43.92
2019-02-22T06:33:08.756Z,43.35
2019-02-22T06:35:38.845Z,41.90
2019-02-22T06:38:18.107Z,42.33
2019-02-22T06:40:48.429Z,41.50
2019-02-22T06:43:18.479Z,42.05
2019-02-22T06:45:49.447Z,40.28
2019-02-22T06:48:25.286Z,41.13
2019-02-22T06:50:56.326Z,37.58
2019-02-22T06:53:27.419Z,41.20
2019-02-22T06:56:09.871Z,40.25
2019-02-22T06:58:41.955Z,41.28
2019-02-22T07:01:12.920Z,38.45
2019-02-22T07:03:44.004Z,41.98
2019-02-22T07:06:16.108Z,39.18
2019-02-22T07:08:46.275Z,39.10
2019-02-22T07:11:18.076Z,36.80
2019-02-22T07:13:48.173Z,38.10
2019-02-22T07:16:27.337Z,38.05
2019-02-22T07:18:58.475Z,39.35
2019-02-22T07:21:43.754Z,37.23
2019-02-22T07:24:07.819Z,38.10
2019-02-22T07:26:37.909Z,36.98
2019-02-22T07:29:09.996Z,35.73
2019-02-22T07:31:49.151Z,35.30
2019-02-22T07:34:19.238Z,31.25
2019-02-22T07:36:49.319Z,35.23
2019-02-22T07:39:27.740Z,33.67
2019-02-22T07:42:05.316Z,31.87
2019-02-22T07:44:41.480Z,31.15
2019-02-22T07:47:12.475Z,33.20
2019-02-22T07:49:42.539Z,29.40
2019-02-22T07:52:13.848Z,32.23
2019-02-22T07:54:43.947Z,28.55
2019-02-22T07:57:16.031Z,28.92
2019-02-22T07:59:46.144Z,28.73
2019-02-22T08:02:16.252Z,28.65
2019-02-22T08:04:49.443Z,29.77
2019-02-22T08:07:21.457Z,29.48
2019-02-22T08:09:57.452Z,29.27
2019-02-22T08:12:27.560Z,28.47
2019-02-22T08:14:59.628Z,27.85
2019-02-22T08:17:31.984Z,27.02
2019-02-22T08:20:09.600Z,28.35
2019-02-22T08:22:39.712Z,27.35
2019-02-22T08:25:10.986Z,29.10
2019-02-22T08:27:52.782Z,26.23
2019-02-22T08:30:12.995Z,24.37
2019-02-22T08:32:44.732Z,26.23
2019-02-22T08:35:14.820Z,24.07
2019-02-22T08:37:44.916Z,25.27
2019-02-22T08:40:25.599Z,26.05
2019-02-22T08:42:58.351Z,23.87
2019-02-22T08:45:30.464Z,21.93
2019-02-22T08:48:00.565Z,23.65
2019-02-22T08:50:32.542Z,21.87
2019-02-22T08:53:02.651Z,21.55
2019-02-22T08:55:38.601Z,22.10
2019-02-22T08:58:09.968Z,21.30
2019-02-22T09:00:43.040Z,20.68
2019-02-22T09:03:15.099Z,20.20
2019-02-22T09:05:50.928Z,20.72
2019-02-22T09:08:21.925Z,19.05
2019-02-22T09:11:00.536Z,18.85
2019-02-22T09:13:30.520Z,19.10
2019-02-22T09:16:00.710Z,16.85
2019-02-22T09:18:40.600Z,20.15
2019-02-22T09:21:16.847Z,19.20
2019-02-22T09:23:46.894Z,18.27
2019-02-22T09:26:22.960Z,16.00
2019-02-22T09:28:55.462Z,16.15
2019-02-22T09:31:25.080Z,17.33
2019-02-22T09:33:57.114Z,14.00
2019-02-22T09:36:27.195Z,14.40
2019-02-22T09:38:58.269Z,13.83
2019-02-22T09:41:28.372Z,13.90
2019-02-22T09:43:58.476Z,14.90
2019-02-22T09:46:39.380Z,12.17
2019-02-22T09:49:09.532Z,13.80
2019-02-22T09:51:41.539Z,13.17
2019-02-22T09:54:12.759Z,12.90
2019-02-22T09:56:51.023Z,12.07
2019-02-22T09:59:21.324Z,12.97
2019-02-22T10:01:53.273Z,11.00
2019-02-22T10:04:24.386Z,11.27
2019-02-22T10:06:55.456Z,11.30
2019-02-22T10:09:25.568Z,11.53
2019-02-22T10:11:56.636Z,11.33
2019-02-22T10:14:28.520Z,9.40
2019-02-22T10:17:01.875Z,9.00
2019-02-22T10:19:32.915Z,10.23
2019-02-22T10:22:05.032Z,9.00
2019-02-22T10:24:36.175Z,9.20
2019-02-22T10:27:06.288Z,10.27
2019-02-22T10:29:36.376Z,10.37
2019-02-22T10:32:12.803Z,8.57
2019-02-22T10:34:43.823Z,8.63
2019-02-22T10:37:13.943Z,8.17
2019-02-22T10:39:45.251Z,8.47
2019-02-22T10:42:16.265Z,9.43
2019-02-22T10:44:49.411Z,9.67
2019-02-22T10:47:20.608Z,9.20
2019-02-22T10:49:50.836Z,8.97
2019-02-22T10:52:23.082Z,9.00
2019-02-22T10:54:53.732Z,9.30
2019-02-22T10:57:26.928Z,8.73
2019-02-22T10:59:58.544Z,8.63
2019-02-22T11:02:31.361Z,8.70
2019-02-22T11:05:09.407Z,9.27
2019-02-22T11:07:46.372Z,8.83
2019-02-22T11:10:16.552Z,9.00
2019-02-22T11:12:46.655Z,9.27
2019-02-22T11:15:16.753Z,8.10
2019-02-22T11:17:47.748Z,8.60
2019-02-22T11:20:18.005Z,6.90
2019-02-22T11:22:48.125Z,7.83
2019-02-22T11:25:18.199Z,7.90
2019-02-22T11:27:48.347Z,7.25
2019-02-22T11:30:19.433Z,6.20
2019-02-22T11:32:49.601Z,6.50
2019-02-22T11:35:19.985Z,5.30
2019-02-22T11:37:51.178Z,6.00
2019-02-22T11:40:21.376Z,6.57
2019-02-22T11:42:51.490Z,6.33
2019-02-22T11:45:21.652Z,5.30
2019-02-22T11:48:09.383Z,4.20
2019-02-22T11:50:40.696Z,3.77
2019-02-22T11:53:11.712Z,3.70
2019-02-22T11:55:47.160Z,3.70
2019-02-22T11:58:18.473Z,4.17
2019-02-22T12:00:48.728Z,3.80
2019-02-22T12:03:25.316Z,4.73
2019-02-22T12:05:55.507Z,3.67
2019-02-22T12:08:25.625Z,4.00
2019-02-22T12:10:58.896Z,4.83
2019-02-22T12:13:39.912Z,4.00
2019-02-22T12:16:10.964Z,3.87
2019-02-22T12:18:41.197Z,3.73
2019-02-22T12:21:13.624Z,3.63
2019-02-22T12:23:46.515Z,3.70
2019-02-22T12:26:16.608Z,4.60
2019-02-22T12:28:47.692Z,3.43
2019-02-22T12:31:20.552Z,3.80
2019-02-22T12:34:01.433Z,3.80
2019-02-22T12:36:31.639Z,4.17
2019-02-22T12:39:05.357Z,4.60
2019-02-22T12:41:35.533Z,4.10
2019-02-22T12:44:06.812Z,3.07
2019-02-22T12:46:37.795Z,3.60
2019-02-22T12:49:14.005Z,4.20
2019-02-22T12:51:44.169Z,4.17
2019-02-22T12:54:25.472Z,3.20
2019-02-22T12:56:58.429Z,3.50
2019-02-22T12:59:29.023Z,3.30
2019-02-22T13:02:04.140Z,3.50
2019-02-22T13:04:36.632Z,3.73
2019-02-22T13:07:06.749Z,2.83
2019-02-22T13:09:37.160Z,3.10
2019-02-22T13:12:14.126Z,3.43
2019-02-22T13:14:40.209Z,3.70
2019-02-22T13:17:12.258Z,2.83
2019-02-22T13:19:42.373Z,3.03
2019-02-22T13:22:15.739Z,3.17
2019-02-22T13:24:47.836Z,3.33
2019-02-22T13:27:18.139Z,3.43
2019-02-22T13:29:48.281Z,4.30
2019-02-22T13:32:19.415Z,3.20
2019-02-22T13:34:50.572Z,2.90
2019-02-22T13:37:21.599Z,3.40
2019-02-22T13:39:51.683Z,3.97
2019-02-22T13:42:24.828Z,3.53
2019-02-22T13:45:03.905Z,2.80
2019-02-22T13:47:34.028Z,3.93
2019-02-22T13:50:15.774Z,3.93
2019-02-22T13:52:45.868Z,4.00
2019-02-22T13:55:16.129Z,3.90
2019-02-22T13:57:46.242Z,3.30
2019-02-22T14:00:23.216Z,2.73
2019-02-22T14:03:05.132Z,3.00
2019-02-22T14:05:40.213Z,3.70
2019-02-22T14:08:12.318Z,3.30
2019-02-22T14:10:45.473Z,2.57
2019-02-22T14:13:16.552Z,2.47
2019-02-22T14:15:46.664Z,2.83
2019-02-22T14:18:18.332Z,2.23
2019-02-22T14:20:48.504Z,2.70
2019-02-22T14:23:19.492Z,2.33
2019-02-22T14:25:49.890Z,2.33
2019-02-22T14:28:20.002Z,2.43
2019-02-22T14:30:59.264Z,3.80
2019-02-22T14:33:29.788Z,2.27
2019-02-22T14:35:59.872Z,2.43
2019-02-22T14:38:31.188Z,2.37
2019-02-22T14:41:02.256Z,3.50
2019-02-22T14:43:32.368Z,3.10
2019-02-22T14:46:08.536Z,2.00
2019-02-22T14:48:39.184Z,2.63
2019-02-22T14:51:10.175Z,3.13
2019-02-22T14:53:40.260Z,3.60
2019-02-22T14:56:10.360Z,2.80
2019-02-22T14:58:44.550Z,2.33
2019-02-22T15:01:14.668Z,3.10
2019-02-22T15:03:46.712Z,3.65
2019-02-22T15:06:27.440Z,3.40
2019-02-22T15:08:57.524Z,2.92
2019-02-22T15:11:27.646Z,3.47
2019-02-22T15:13:57.728Z,3.47
2019-02-22T15:16:46.652Z,2.50
2019-02-22T15:19:17.712Z,2.70
2019-02-22T15:21:49.157Z,3.10
2019-02-22T15:24:19.235Z,2.63
2019-02-22T15:26:53.925Z,3.10
2019-02-22T15:29:23.800Z,2.90
2019-02-22T15:32:05.972Z,2.90
2019-02-22T15:34:37.012Z,3.10
2019-02-22T15:37:10.536Z,3.93
2019-02-22T15:39:42.665Z,5.00
2019-02-22T15:42:19.548Z,3.60
2019-02-22T15:44:55.504Z,3.50
2019-02-22T15:47:40.812Z,4.20
2019-02-22T15:50:17.152Z,3.27
2019-02-22T15:52:50.285Z,3.93
2019-02-22T15:55:26.228Z,3.80
2019-02-22T15:58:01.600Z,3.65
2019-02-22T16:00:39.938Z,2.58
2019-02-22T16:03:10.041Z,2.55
2019-02-22T16:05:41.807Z,3.52
2019-02-22T16:08:11.868Z,2.75
2019-02-22T16:10:47.908Z,2.70
2019-02-22T16:13:18.076Z,2.80
2019-02-22T16:15:50.100Z,2.90
2019-02-22T16:18:20.184Z,2.52
2019-02-22T16:20:56.185Z,2.77
2019-02-22T16:23:26.276Z,3.00
2019-02-22T16:26:00.176Z,3.10
2019-02-22T16:28:31.252Z,3.20
2019-02-22T16:31:01.382Z,3.12
2019-02-22T16:33:32.377Z,3.12
2019-02-22T16:36:03.428Z,3.52
2019-02-22T16:38:33.512Z,3.85
2019-02-22T16:41:04.583Z,2.90
2019-02-22T16:43:40.517Z,3.35
2019-02-22T16:46:10.596Z,3.92
2019-02-22T16:48:40.688Z,4.37
2019-02-22T16:51:10.784Z,4.20
2019-02-22T16:53:40.875Z,4.35
2019-02-22T16:56:10.988Z,4.50
2019-02-22T16:58:45.044Z,3.15
2019-02-22T17:01:16.072Z,4.08
2019-02-22T17:03:46.152Z,3.60
2019-02-22T17:06:26.250Z,3.08
2019-02-22T17:08:56.372Z,3.30
2019-02-22T17:11:33.248Z,3.08
2019-02-22T17:14:04.368Z,4.20
2019-02-22T17:16:45.826Z,4.05
2019-02-22T17:19:12.004Z,6.10
2019-02-22T17:21:42.080Z,4.60
2019-02-22T17:24:12.168Z,4.95
2019-02-22T17:26:43.158Z,3.98
2019-02-22T17:29:14.248Z,3.00
2019-02-22T17:31:44.328Z,3.02
2019-02-22T17:34:14.400Z,3.10
2019-02-22T17:36:46.432Z,3.72
2019-02-22T17:39:16.492Z,4.20
2019-02-22T17:41:48.509Z,4.20
2019-02-22T17:44:18.612Z,3.77
2019-02-22T17:46:57.564Z,3.70
2019-02-22T17:49:23.444Z,3.92
2019-02-22T17:51:54.737Z,4.80
2019-02-22T17:54:24.872Z,4.42
2019-02-22T17:56:59.163Z,4.10
2019-02-22T17:59:46.536Z,4.72
2019-02-22T18:02:22.412Z,4.60
2019-02-22T18:04:53.404Z,4.35
2019-02-22T18:07:25.421Z,4.33
2019-02-22T18:09:56.388Z,3.98
2019-02-22T18:12:26.493Z,4.97
2019-02-22T18:15:02.360Z,4.67
2019-02-22T18:17:36.592Z,4.78
2019-02-22T18:20:10.860Z,4.90
2019-02-22T18:22:43.196Z,4.60
2019-02-22T18:25:13.781Z,6.08
2019-02-22T18:27:44.882Z,6.12
2019-02-22T18:30:21.993Z,5.53
2019-02-22T18:32:52.075Z,5.85
2019-02-22T18:35:25.192Z,5.95
2019-02-22T18:37:57.276Z,5.62
2019-02-22T18:40:28.244Z,6.00
2019-02-22T18:43:05.344Z,5.80
2019-02-22T18:45:35.416Z,6.05
2019-02-22T18:48:07.452Z,6.78
2019-02-22T18:50:40.088Z,5.97
2019-02-22T18:53:13.772Z,6.40
2019-02-22T18:55:50.094Z,6.33
2019-02-22T18:58:15.616Z,6.87
2019-02-22T19:00:45.704Z,6.45
2019-02-22T19:03:15.780Z,7.05
2019-02-22T19:05:45.881Z,6.15
2019-02-22T19:08:15.980Z,6.47
2019-02-22T19:10:46.061Z,6.40
2019-02-22T19:13:16.156Z,6.25
2019-02-22T19:15:48.224Z,6.08
2019-02-22T19:18:22.321Z,6.00
2019-02-22T19:20:53.352Z,5.92
2019-02-22T19:23:23.416Z,5.85
2019-02-22T19:25:55.504Z,6.17
2019-02-22T19:28:28.160Z,5.30
2019-02-22T19:31:01.298Z,7.05
2019-02-22T19:33:35.679Z,6.62
2019-02-22T19:36:06.661Z,8.78
2019-02-22T19:38:37.692Z,7.00
2019-02-22T19:41:07.764Z,6.90
2019-02-22T19:43:38.880Z,9.08
2019-02-22T19:46:09.038Z,8.50
2019-02-22T19:48:40.108Z,8.78
2019-02-22T19:51:10.260Z,12.88
2019-02-22T19:53:41.308Z,9.48
2019-02-22T19:56:11.529Z,11.73
2019-02-22T19:58:45.332Z,7.85
2019-02-22T20:01:15.441Z,7.72
2019-02-22T20:03:45.551Z,7.17
2019-02-22T20:06:15.786Z,7.05
2019-02-22T20:08:46.048Z,7.20
2019-02-22T20:11:18.204Z,9.80
2019-02-22T20:13:48.328Z,8.73
2019-02-22T20:16:20.644Z,7.20
2019-02-22T20:18:51.722Z,7.83
2019-02-22T20:21:24.908Z,6.30
2019-02-22T20:23:55.016Z,7.50
2019-02-22T20:26:27.140Z,7.40
2019-02-22T20:29:05.892Z,6.92
2019-02-22T20:31:36.242Z,8.48
2019-02-22T20:34:06.359Z,7.80
2019-02-22T20:36:40.384Z,6.50
2019-02-22T20:39:16.552Z,7.15
2019-02-22T20:41:47.041Z,8.13
2019-02-22T20:44:17.290Z,7.10
2019-02-22T20:46:47.400Z,7.97
2019-02-22T20:49:23.688Z,8.20
2019-02-22T20:51:55.792Z,8.98
2019-02-22T20:54:26.840Z,8.13
2019-02-22T20:56:57.065Z,8.95
2019-02-22T20:59:27.140Z,8.28
2019-02-22T21:02:16.592Z,9.20
2019-02-22T21:04:47.666Z,10.80
2019-02-22T21:07:17.748Z,9.50
2019-02-22T21:09:49.744Z,9.55
2019-02-22T21:12:23.652Z,9.73
2019-02-22T21:14:53.749Z,9.00
2019-02-22T21:17:25.736Z,9.18
2019-02-22T21:20:04.112Z,9.65
2019-02-22T21:22:41.292Z,8.90
2019-02-22T21:25:12.544Z,10.85
2019-02-22T21:27:42.716Z,9.73
2019-02-22T21:30:19.028Z,10.93
2019-02-22T21:32:50.105Z,10.03
2019-02-22T21:35:20.188Z,9.65
2019-02-22T21:37:54.268Z,9.28
2019-02-22T21:40:30.104Z,10.98
2019-02-22T21:43:00.224Z,11.00
2019-02-22T21:45:33.812Z,9.78
2019-02-22T21:48:03.893Z,11.35
2019-02-22T21:50:34.959Z,10.82
2019-02-22T21:53:05.944Z,11.65
2019-02-22T21:55:36.028Z,10.85
2019-02-22T21:58:06.109Z,10.30
2019-02-22T22:00:36.280Z,11.20
2019-02-22T22:03:06.371Z,11.53
2019-02-22T22:05:37.429Z,11.40
2019-02-22T22:08:09.500Z,12.00
2019-02-22T22:10:42.608Z,11.80
2019-02-22T22:13:12.685Z,13.35
2019-02-22T22:15:42.778Z,12.15
2019-02-22T22:18:12.884Z,12.78
2019-02-22T22:20:43.903Z,14.55
2019-02-22T22:23:15.944Z,13.48
2019-02-22T22:25:47.992Z,12.88
2019-02-22T22:28:18.084Z,13.95
2019-02-22T22:30:48.324Z,13.18
2019-02-22T22:33:20.431Z,15.50
2019-02-22T22:35:50.544Z,13.80
2019-02-22T22:38:21.544Z,16.35
2019-02-22T22:40:52.603Z,15.60
2019-02-22T22:43:22.712Z,16.40
2019-02-22T22:45:56.445Z,15.35
2019-02-22T22:48:27.460Z,16.87
2019-02-22T22:50:57.548Z,15.30
2019-02-22T22:53:28.620Z,17.25
2019-02-22T22:55:58.708Z,15.00
2019-02-22T22:58:28.792Z,15.78
2019-02-22T23:01:06.342Z,15.88
2019-02-22T23:03:36.649Z,16.12
2019-02-22T23:06:06.788Z,14.85
2019-02-22T23:08:36.871Z,15.20
2019-02-22T23:11:12.840Z,15.68
2019-02-22T23:13:43.841Z,14.25
2019-02-22T23:16:14.000Z,15.23
2019-02-22T23:18:44.084Z,14.15
2019-02-22T23:21:14.308Z,15.35
2019-02-22T23:23:46.288Z,16.07
2019-02-22T23:26:16.374Z,14.45
2019-02-22T23:28:46.488Z,15.30
2019-02-22T23:31:16.574Z,15.32
2019-02-22T23:33:46.676Z,16.02
2019-02-22T23:36:16.748Z,15.85
2019-02-22T23:38:48.780Z,16.62
2019-02-22T23:41:19.844Z,16.25
2019-02-22T23:43:50.852Z,14.55
2019-02-22T23:46:21.004Z,15.40
2019-02-22T23:48:52.044Z,15.03
2019-02-22T23:51:23.084Z,16.75
2019-02-22T23:53:54.094Z,15.68
2019-02-22T23:56:24.188Z,16.42
2019-02-22T23:58:54.268Z,14.85
